createdAt,value
2023-02-14T00:02:14.665Z,3.06
2023-02-14T00:06:06.539Z,3.04
2023-02-14T00:21:37.778Z,3.04
2023-02-14T00:25:19.711Z,3.01
2023-02-14T00:29:08.724Z,3.00
2023-02-14T00:32:57.803Z,2.98
2023-02-14T00:36:47.079Z,2.97
2023-02-14T00:40:35.780Z,2.96
2023-02-14T00:44:24.818Z,2.94
2023-02-14T00:48:13.917Z,2.93
2023-02-14T00:52:04.909Z,2.92
2023-02-14T00:55:53.637Z,2.90
2023-02-14T00:59:42.331Z,2.89
2023-02-14T01:03:31.658Z,2.87
2023-02-14T01:07:20.341Z,2.87
2023-02-14T01:11:09.550Z,2.87
2023-02-14T01:14:57.512Z,2.86
2023-02-14T01:18:46.727Z,2.84
2023-02-14T01:22:35.916Z,2.82
2023-02-14T01:26:25.387Z,2.81
2023-02-14T01:30:14.457Z,2.81
2023-02-14T01:34:03.571Z,2.79
2023-02-14T01:37:52.535Z,2.77
2023-02-14T01:41:44.431Z,2.74
2023-02-14T01:45:39.352Z,2.74
2023-02-14T01:49:28.456Z,2.72
2023-02-14T01:53:18.430Z,2.70
2023-02-14T02:00:54.586Z,2.67
2023-02-14T02:13:09.044Z,2.68
2023-02-14T02:17:05.533Z,2.68
2023-02-14T02:20:55.888Z,2.68
2023-02-14T02:33:05.436Z,2.67
2023-02-14T02:36:53.196Z,2.64
2023-02-14T02:41:03.779Z,2.61
2023-02-14T02:57:07.884Z,2.58
2023-02-14T03:00:57.903Z,2.56
2023-02-14T03:04:45.957Z,2.53
2023-02-14T03:08:35.090Z,2.52
2023-02-14T03:12:24.225Z,2.52
2023-02-14T03:28:28.303Z,2.51
2023-02-14T03:32:32.246Z,2.48
2023-02-14T03:45:03.001Z,2.43
2023-02-14T03:48:50.901Z,2.40
2023-02-14T03:52:38.420Z,2.39
2023-02-14T04:00:29.368Z,2.39
2023-02-14T04:04:08.311Z,2.38
2023-02-14T04:07:57.344Z,2.39
2023-02-14T04:11:46.493Z,2.40
2023-02-14T04:15:36.272Z,2.39
2023-02-14T04:19:44.182Z,2.39
2023-02-14T04:23:33.194Z,2.38
2023-02-14T04:27:32.323Z,2.38
2023-02-14T04:31:21.806Z,2.37
2023-02-14T04:35:11.847Z,2.36
2023-02-14T04:38:59.890Z,2.36
2023-02-14T04:42:50.001Z,2.35
2023-02-14T04:46:39.082Z,2.35
2023-02-14T04:50:28.386Z,2.35
2023-02-14T04:54:17.400Z,2.36
2023-02-14T04:57:08.312Z,2.37
2023-02-14T05:00:37.158Z,2.36
2023-02-14T05:04:26.285Z,2.33
2023-02-14T05:08:15.248Z,2.31
2023-02-14T05:12:05.947Z,2.29
2023-02-14T05:15:54.560Z,2.30
2023-02-14T05:19:38.820Z,2.30
2023-02-14T05:23:27.886Z,2.31
2023-02-14T05:27:17.879Z,2.31
2023-02-14T05:46:45.085Z,2.29
2023-02-14T05:50:34.051Z,2.27
2023-02-14T05:54:11.986Z,2.26
2023-02-14T05:58:01.906Z,2.26
2023-02-14T06:01:30.649Z,2.27
2023-02-14T06:05:08.744Z,2.27
2023-02-14T06:08:21.710Z,2.27
2023-02-14T06:15:57.110Z,2.27
2023-02-14T06:19:46.263Z,2.25
2023-02-14T06:23:36.596Z,2.26
2023-02-14T06:26:50.504Z,2.26
2023-02-14T06:30:24.912Z,2.26
2023-02-14T06:33:56.055Z,2.26
2023-02-14T06:55:05.833Z,2.24
2023-02-14T06:58:54.883Z,2.23
2023-02-14T07:02:35.647Z,2.21
2023-02-14T07:06:17.696Z,2.21
2023-02-14T07:09:37.006Z,2.20
2023-02-14T07:13:06.018Z,2.19
2023-02-14T07:16:55.255Z,2.21
2023-02-14T07:20:45.493Z,2.22
2023-02-14T07:24:14.539Z,2.23
2023-02-14T07:28:03.690Z,2.23
2023-02-14T07:38:10.431Z,2.26
2023-02-14T07:44:42.022Z,2.29
2023-02-14T07:48:02.656Z,2.33
2023-02-14T07:51:26.651Z,2.35
2023-02-14T07:54:55.626Z,2.39
2023-02-14T07:58:29.321Z,2.41
2023-02-14T08:12:42.680Z,2.59
2023-02-14T08:15:55.215Z,2.62
2023-02-14T08:18:42.044Z,2.66
2023-02-14T09:16:23.342Z,3.37
2023-02-14T09:20:12.622Z,3.38
2023-02-14T09:23:24.372Z,3.44
2023-02-14T09:26:56.456Z,3.50
2023-02-14T09:30:38.589Z,3.55
2023-02-14T09:34:28.994Z,3.60
2023-02-14T09:38:11.552Z,3.65
2023-02-14T09:42:09.695Z,3.68
2023-02-14T09:46:21.995Z,3.69
2023-02-14T09:49:19.864Z,3.68
2023-02-14T09:52:03.400Z,3.71
2023-02-14T09:55:14.793Z,3.77
2023-02-14T09:59:09.899Z,3.81
2023-02-14T10:02:55.715Z,3.91
2023-02-14T10:06:42.919Z,4.01
2023-02-14T10:29:46.700Z,4.48
2023-02-14T10:33:39.735Z,4.47
2023-02-14T10:37:24.366Z,4.53
2023-02-14T10:41:24.313Z,4.60
2023-02-14T10:44:47.789Z,4.63
2023-02-14T10:52:20.455Z,4.68
2023-02-14T10:56:19.161Z,4.72
2023-02-14T10:59:52.116Z,4.78
2023-02-14T11:21:37.433Z,4.94
2023-02-14T11:25:26.035Z,4.91
2023-02-14T11:29:14.730Z,4.92
2023-02-14T11:33:04.435Z,4.94
2023-02-14T11:36:18.223Z,4.99
2023-02-14T11:40:04.274Z,5.02
2023-02-14T11:43:16.544Z,5.02
2023-02-14T11:46:53.428Z,5.01
2023-02-14T11:50:00.692Z,5.02
2023-02-14T11:52:56.420Z,4.98
2023-02-14T11:56:02.721Z,5.00
2023-02-14T11:59:37.641Z,5.03
2023-02-14T12:25:38.050Z,5.55
2023-02-14T12:29:27.544Z,5.49
2023-02-14T12:33:16.726Z,5.40
2023-02-14T12:37:06.404Z,5.33
2023-02-14T12:43:55.533Z,5.25
2023-02-14T12:47:23.136Z,5.21
2023-02-14T12:51:01.003Z,5.17
2023-02-14T12:54:48.901Z,5.12
2023-02-14T12:58:38.116Z,5.09
2023-02-14T13:19:19.705Z,5.11
2023-02-14T13:22:33.377Z,5.11
2023-02-14T13:25:50.912Z,5.10
2023-02-14T13:28:59.856Z,5.08
2023-02-14T13:31:43.024Z,5.02
2023-02-14T13:35:04.413Z,5.00
2023-02-14T13:38:51.824Z,4.96
2023-02-14T13:42:14.942Z,4.93
2023-02-14T13:45:32.716Z,4.93
2023-02-14T13:48:17.667Z,4.93
2023-02-14T13:51:40.725Z,4.90
2023-02-14T13:55:48.764Z,4.84
2023-02-14T14:03:31.454Z,4.78
2023-02-14T14:24:27.434Z,4.71
2023-02-14T14:28:16.687Z,4.65
2023-02-14T14:32:06.255Z,4.63
2023-02-14T14:50:43.470Z,4.45
2023-02-14T14:54:28.166Z,4.41
2023-02-14T14:57:28.259Z,4.37
2023-02-14T15:00:45.647Z,4.34
2023-02-14T15:03:22.752Z,4.33
2023-02-14T15:06:54.940Z,4.30
2023-02-14T15:10:16.580Z,4.30
2023-02-14T15:13:48.328Z,4.31
2023-02-14T15:16:34.705Z,4.32
2023-02-14T15:19:32.760Z,4.30
2023-02-14T16:00:05.639Z,3.91
2023-02-14T16:03:45.099Z,3.89
2023-02-14T16:07:34.371Z,3.89
2023-02-14T16:11:23.591Z,3.88
2023-02-14T16:15:21.920Z,3.85
2023-02-14T16:27:43.628Z,3.83
2023-02-14T16:31:34.112Z,3.79
2023-02-14T16:35:14.666Z,3.78
2023-02-14T16:39:02.227Z,3.76
2023-02-14T16:42:49.926Z,3.74
2023-02-14T16:46:27.143Z,3.71
2023-02-14T16:50:14.904Z,3.69
2023-02-14T16:54:02.968Z,3.66
2023-02-14T16:57:52.427Z,3.64
2023-02-14T17:17:12.229Z,3.54
2023-02-14T17:21:01.406Z,3.49
2023-02-14T17:24:51.147Z,3.45
2023-02-14T17:28:40.320Z,3.40
2023-02-14T17:32:29.869Z,3.37
2023-02-14T17:36:19.007Z,3.34
2023-02-14T17:40:08.129Z,3.30
2023-02-14T17:43:58.131Z,3.26
2023-02-14T17:48:26.399Z,3.26
2023-02-14T17:52:14.123Z,3.22
2023-02-14T17:55:54.471Z,3.20
2023-02-14T17:59:21.610Z,3.16
2023-02-14T18:03:09.228Z,3.12
2023-02-14T18:06:56.712Z,3.08
2023-02-14T18:10:44.581Z,3.03
2023-02-14T18:14:35.228Z,3.01
2023-02-14T18:22:17.962Z,2.99
2023-02-14T18:26:07.241Z,2.93
2023-02-14T18:29:56.466Z,2.91
2023-02-14T18:33:45.967Z,2.89
2023-02-14T18:37:36.008Z,2.87
2023-02-14T18:41:25.330Z,2.84
2023-02-14T18:45:14.361Z,2.83
2023-02-14T18:49:03.796Z,2.82
2023-02-14T18:52:53.445Z,2.82
2023-02-14T18:56:45.884Z,2.80
2023-02-14T19:00:34.862Z,2.79
2023-02-14T19:04:23.818Z,2.78
2023-02-14T19:08:13.065Z,2.75
2023-02-14T19:12:02.379Z,2.70
2023-02-14T19:15:55.240Z,2.66
2023-02-14T19:19:37.253Z,2.63
2023-02-14T19:35:07.956Z,2.59
2023-02-14T19:38:57.354Z,2.57
2023-02-14T19:42:47.176Z,2.57
2023-02-14T19:46:37.208Z,2.55
2023-02-14T19:50:26.232Z,2.54
2023-02-14T19:54:16.246Z,2.54
2023-02-14T19:58:04.953Z,2.54
2023-02-14T20:01:56.628Z,2.52
2023-02-14T20:21:31.440Z,2.51
2023-02-14T20:25:19.185Z,2.49
2023-02-14T20:29:06.337Z,2.48
2023-02-14T20:32:53.954Z,2.46
2023-02-14T20:36:43.220Z,2.45
2023-02-14T20:40:32.249Z,2.45
2023-02-14T20:52:22.099Z,2.53
2023-02-14T20:55:46.540Z,2.50
2023-02-14T20:59:29.594Z,2.50
2023-02-14T21:03:13.605Z,2.49
2023-02-14T21:07:29.983Z,2.52
2023-02-14T21:11:17.966Z,2.50
2023-02-14T21:15:07.284Z,2.51
2023-02-14T21:18:56.203Z,2.50
2023-02-14T21:22:45.339Z,2.49
2023-02-14T21:26:35.477Z,2.49
2023-02-14T21:30:24.629Z,2.46
2023-02-14T21:34:16.691Z,2.45
2023-02-14T21:38:05.907Z,2.42
2023-02-14T21:41:57.719Z,2.39
2023-02-14T21:45:45.732Z,2.39
2023-02-14T21:49:33.304Z,2.36
2023-02-14T21:57:19.211Z,2.37
2023-02-14T22:01:08.487Z,2.34
2023-02-14T22:04:57.802Z,2.31
2023-02-14T22:08:46.649Z,2.31
2023-02-14T22:12:35.902Z,2.29
2023-02-14T22:16:24.944Z,2.28
2023-02-14T22:20:14.335Z,2.26
2023-02-14T22:24:03.322Z,2.23
2023-02-14T22:27:51.643Z,2.24
2023-02-14T22:51:15.080Z,2.07
2023-02-14T22:55:04.041Z,1.99
2023-02-14T22:58:53.071Z,1.92
2023-02-14T23:02:42.434Z,1.85
2023-02-14T23:06:38.774Z,1.78
2023-02-14T23:10:27.819Z,1.72
2023-02-14T23:14:16.401Z,1.65
2023-02-14T23:18:03.238Z,1.60
2023-02-14T23:21:49.042Z,1.53
2023-02-14T23:25:38.104Z,1.46
2023-02-14T23:29:26.132Z,1.38
2023-02-14T23:33:55.451Z,1.30
2023-02-14T23:37:44.768Z,1.15
2023-02-14T23:41:32.323Z,1.00
2023-02-14T23:45:21.547Z,0.85
2023-02-14T23:49:10.667Z,0.67
2023-02-14T23:52:59.887Z,0.53
2023-02-14T23:56:48.996Z,0.39
